createdAt,value
2022-10-29T00:00:29.751Z,9.09
2022-10-29T00:02:59.373Z,9.04
2022-10-29T00:05:28.991Z,9.13
2022-10-29T00:07:58.794Z,9.06
2022-10-29T00:10:30.201Z,8.85
2022-10-29T00:13:01.354Z,8.97
2022-10-29T00:15:31.476Z,8.95
2022-10-29T00:18:00.977Z,8.86
2022-10-29T00:20:30.658Z,8.98
2022-10-29T00:23:00.161Z,9.04
2022-10-29T00:25:31.091Z,8.92
2022-10-29T00:28:00.641Z,8.90
2022-10-29T00:30:30.221Z,8.85
2022-10-29T00:33:00.077Z,8.95
2022-10-29T00:35:29.625Z,8.93
2022-10-29T00:37:59.223Z,8.86
2022-10-29T00:40:28.913Z,8.83
2022-10-29T00:45:55.851Z,8.72
2022-10-29T00:48:26.543Z,8.56
2022-10-29T00:50:57.274Z,8.80
2022-10-29T00:53:28.430Z,8.85
2022-10-29T00:55:59.347Z,8.89
2022-10-29T00:58:29.936Z,9.00
2022-10-29T01:01:00.841Z,9.09
2022-10-29T01:03:30.517Z,9.01
2022-10-29T01:06:01.209Z,9.03
2022-10-29T01:08:30.818Z,8.75
2022-10-29T01:11:04.876Z,8.77
2022-10-29T01:13:42.509Z,8.78
2022-10-29T01:16:19.015Z,8.86
2022-10-29T01:18:51.208Z,8.88
2022-10-29T01:21:38.628Z,8.86
2022-10-29T01:24:29.015Z,8.63
2022-10-29T01:27:11.827Z,8.74
2022-10-29T01:29:51.333Z,8.73
2022-10-29T01:32:26.072Z,8.46
2022-10-29T01:34:59.965Z,8.52
2022-10-29T01:37:32.503Z,8.54
2022-10-29T01:40:06.307Z,8.50
2022-10-29T01:42:38.333Z,8.44
2022-10-29T01:45:13.004Z,8.32
2022-10-29T01:47:46.843Z,8.36
2022-10-29T01:50:18.660Z,8.49
2022-10-29T01:52:48.704Z,8.45
2022-10-29T01:55:19.796Z,8.44
2022-10-29T01:57:49.614Z,8.54
2022-10-29T02:00:20.884Z,8.10
2022-10-29T02:02:59.392Z,8.45
2022-10-29T02:05:33.111Z,8.40
2022-10-29T02:08:08.027Z,8.46
2022-10-29T02:10:40.852Z,8.33
2022-10-29T02:13:13.026Z,8.30
2022-10-29T02:15:45.463Z,8.32
2022-10-29T02:18:17.049Z,8.39
2022-10-29T02:20:47.310Z,8.37
2022-10-29T02:23:17.336Z,8.42
2022-10-29T02:25:47.379Z,8.48
2022-10-29T02:28:17.126Z,8.46
2022-10-29T02:30:48.095Z,8.46
2022-10-29T02:33:19.088Z,8.47
2022-10-29T02:35:48.575Z,8.60
2022-10-29T02:38:18.108Z,8.66
2022-10-29T02:40:47.849Z,8.73
2022-10-29T02:43:17.357Z,8.57
2022-10-29T02:45:46.886Z,8.73
2022-10-29T02:48:16.353Z,8.81
2022-10-29T02:50:47.195Z,8.69
2022-10-29T02:53:16.758Z,8.77
2022-10-29T02:55:46.406Z,8.81
2022-10-29T02:58:15.912Z,8.77
2022-10-29T03:00:45.408Z,8.79
2022-10-29T03:03:14.929Z,8.78
2022-10-29T03:05:49.113Z,8.93
2022-10-29T03:08:19.373Z,8.93
2022-10-29T03:10:48.966Z,9.03
2022-10-29T03:13:19.131Z,9.12
2022-10-29T03:15:49.603Z,9.03
2022-10-29T03:18:19.007Z,9.09
2022-10-29T03:20:50.046Z,9.07
2022-10-29T03:23:19.560Z,8.98
2022-10-29T03:25:55.557Z,9.06
2022-10-29T03:28:27.894Z,9.11
2022-10-29T03:30:57.594Z,9.17
2022-10-29T03:33:27.584Z,9.22
2022-10-29T03:35:59.056Z,9.28
2022-10-29T03:38:29.022Z,9.25
2022-10-29T03:40:59.197Z,9.24
2022-10-29T03:43:29.017Z,9.17
2022-10-29T03:45:58.724Z,9.16
2022-10-29T03:48:28.189Z,9.08
2022-10-29T03:51:00.192Z,9.21
2022-10-29T03:53:30.408Z,9.11
2022-10-29T03:56:00.218Z,9.20
2022-10-29T03:58:29.775Z,9.21
2022-10-29T04:01:00.253Z,9.19
2022-10-29T04:03:31.157Z,9.15
2022-10-29T04:06:03.362Z,9.10
2022-10-29T04:08:32.976Z,9.13
2022-10-29T04:11:02.620Z,9.16
2022-10-29T04:13:32.954Z,9.13
2022-10-29T04:16:02.941Z,9.24
2022-10-29T04:18:32.650Z,9.27
2022-10-29T04:29:33.056Z,9.41
2022-10-29T04:32:02.639Z,9.43
2022-10-29T04:34:32.329Z,9.48
2022-10-29T04:37:03.603Z,9.40
2022-10-29T04:39:33.131Z,9.23
2022-10-29T04:42:04.206Z,9.38
2022-10-29T04:44:33.817Z,9.33
2022-10-29T04:47:03.476Z,9.36
2022-10-29T04:49:33.289Z,9.29
2022-10-29T04:52:04.372Z,9.33
2022-10-29T04:54:33.909Z,9.15
2022-10-29T04:57:03.500Z,9.16
2022-10-29T04:59:33.191Z,9.18
2022-10-29T05:02:02.752Z,9.04
2022-10-29T05:04:32.491Z,9.10
2022-10-29T05:07:02.048Z,9.12
2022-10-29T05:09:33.044Z,9.16
2022-10-29T05:12:03.044Z,9.13
2022-10-29T05:14:33.027Z,9.17
2022-10-29T05:17:03.161Z,9.19
2022-10-29T05:19:32.788Z,9.13
2022-10-29T05:22:02.388Z,9.19
2022-10-29T05:24:33.262Z,9.15
2022-10-29T05:27:03.410Z,9.18
2022-10-29T05:29:32.940Z,9.12
2022-10-29T05:32:02.552Z,9.09
2022-10-29T05:34:32.024Z,9.09
2022-10-29T05:37:01.752Z,9.01
2022-10-29T05:39:31.486Z,8.90
2022-10-29T05:42:02.497Z,9.08
2022-10-29T05:44:32.289Z,9.06
2022-10-29T05:47:01.975Z,9.01
2022-10-29T05:49:31.480Z,9.02
2022-10-29T05:52:01.349Z,9.24
2022-10-29T05:54:31.003Z,9.33
2022-10-29T05:57:01.917Z,9.29
2022-10-29T05:59:33.727Z,9.24
2022-10-29T06:02:03.926Z,9.37
2022-10-29T06:04:35.132Z,9.41
2022-10-29T06:07:04.879Z,9.48
2022-10-29T06:09:34.702Z,9.46
2022-10-29T06:12:05.977Z,9.49
2022-10-29T06:14:35.481Z,9.65
2022-10-29T06:17:05.008Z,9.70
2022-10-29T06:19:34.652Z,9.74
2022-10-29T06:22:05.261Z,9.75
2022-10-29T06:24:34.753Z,9.80
2022-10-29T06:27:05.769Z,9.84
2022-10-29T06:29:35.265Z,9.93
2022-10-29T06:32:05.474Z,9.91
2022-10-29T06:34:35.367Z,10.12
2022-10-29T06:37:04.976Z,10.23
2022-10-29T06:39:34.529Z,10.33
2022-10-29T06:42:05.661Z,10.20
2022-10-29T06:44:35.553Z,10.30
2022-10-29T06:47:05.869Z,10.32
2022-10-29T06:49:35.397Z,10.37
2022-10-29T06:52:05.351Z,10.27
2022-10-29T06:54:35.312Z,10.34
2022-10-29T06:57:06.232Z,10.41
2022-10-29T06:59:35.973Z,10.55
2022-10-29T07:02:05.610Z,10.70
2022-10-29T07:04:35.342Z,10.75
2022-10-29T07:07:05.069Z,10.68
2022-10-29T07:09:34.720Z,10.82
2022-10-29T07:12:06.689Z,10.97
2022-10-29T07:14:36.968Z,11.05
2022-10-29T07:17:07.018Z,11.12
2022-10-29T07:19:36.525Z,11.19
2022-10-29T07:22:06.318Z,11.28
2022-10-29T07:24:35.893Z,11.35
2022-10-29T07:27:07.616Z,11.44
2022-10-29T07:29:37.168Z,11.59
2022-10-29T07:32:06.872Z,11.67
2022-10-29T07:34:36.369Z,11.77
2022-10-29T07:37:06.001Z,11.91
2022-10-29T07:39:35.687Z,12.03
2022-10-29T07:42:06.828Z,12.16
2022-10-29T07:44:36.747Z,12.30
2022-10-29T07:47:06.518Z,12.40
2022-10-29T07:49:36.311Z,12.55
2022-10-29T07:52:06.244Z,12.63
2022-10-29T07:54:35.950Z,12.71
2022-10-29T07:57:06.881Z,12.76
2022-10-29T07:59:36.572Z,12.74
2022-10-29T08:02:06.121Z,12.88
2022-10-29T08:04:35.853Z,12.95
2022-10-29T08:07:05.704Z,12.91
2022-10-29T08:09:35.475Z,13.05
2022-10-29T08:12:08.371Z,13.13
2022-10-29T08:14:39.050Z,13.18
2022-10-29T08:17:09.348Z,13.22
2022-10-29T08:19:38.792Z,13.33
2022-10-29T08:22:08.396Z,13.39
2022-10-29T08:24:38.286Z,13.53
2022-10-29T08:27:09.180Z,13.61
2022-10-29T08:29:40.053Z,13.67
2022-10-29T08:32:09.596Z,13.70
2022-10-29T08:34:40.532Z,13.75
2022-10-29T08:37:10.149Z,13.80
2022-10-29T08:39:39.746Z,13.93
2022-10-29T08:42:19.420Z,13.95
2022-10-29T08:45:10.115Z,14.05
2022-10-29T08:47:46.992Z,14.10
2022-10-29T08:50:20.516Z,14.16
2022-10-29T08:52:58.972Z,14.18
2022-10-29T08:55:41.107Z,14.20
2022-10-29T08:58:20.852Z,14.33
2022-10-29T09:00:53.987Z,14.36
2022-10-29T09:03:25.601Z,14.37
2022-10-29T09:05:58.678Z,14.39
2022-10-29T09:08:32.956Z,14.45
2022-10-29T09:11:08.655Z,14.51
2022-10-29T09:13:48.535Z,14.54
2022-10-29T09:16:26.762Z,14.57
2022-10-29T09:19:03.167Z,14.68
2022-10-29T09:21:34.396Z,14.68
2022-10-29T09:24:08.894Z,14.76
2022-10-29T09:26:44.050Z,14.89
2022-10-29T09:29:34.953Z,14.93
2022-10-29T09:32:06.421Z,15.01
2022-10-29T09:34:39.780Z,15.11
2022-10-29T09:37:15.017Z,15.10
2022-10-29T09:39:46.084Z,15.14
2022-10-29T09:42:17.936Z,15.15
2022-10-29T09:44:50.909Z,15.32
2022-10-29T09:47:25.376Z,15.27
2022-10-29T09:50:07.234Z,15.35
2022-10-29T09:52:40.745Z,15.37
2022-10-29T09:55:16.810Z,15.40
2022-10-29T09:57:47.097Z,15.49
2022-10-29T10:00:23.066Z,15.58
2022-10-29T10:02:56.183Z,15.63
2022-10-29T10:05:27.490Z,15.72
2022-10-29T10:08:07.536Z,15.71
2022-10-29T10:10:39.219Z,15.79
2022-10-29T10:13:17.187Z,15.86
2022-10-29T10:15:52.733Z,15.99
2022-10-29T10:18:23.939Z,16.08
2022-10-29T10:21:04.439Z,16.05
2022-10-29T10:23:41.680Z,16.14
2022-10-29T10:26:29.410Z,16.18
2022-10-29T10:29:06.229Z,16.15
2022-10-29T10:31:37.340Z,16.25
2022-10-29T10:34:14.947Z,16.26
2022-10-29T10:36:45.606Z,16.35
2022-10-29T10:39:25.020Z,16.47
2022-10-29T10:41:55.393Z,16.43
2022-10-29T10:44:25.141Z,16.43
2022-10-29T10:46:57.710Z,16.51
2022-10-29T10:49:31.480Z,16.51
2022-10-29T10:52:02.615Z,16.62
2022-10-29T10:54:37.708Z,16.83
2022-10-29T10:57:20.644Z,16.87
2022-10-29T10:59:53.377Z,16.79
2022-10-29T11:02:28.391Z,16.77
2022-10-29T11:05:03.527Z,16.84
2022-10-29T11:07:38.433Z,16.97
2022-10-29T11:10:11.635Z,16.92
2022-10-29T11:12:43.992Z,17.02
2022-10-29T11:15:16.883Z,17.11
2022-10-29T11:17:54.310Z,17.00
2022-10-29T11:20:25.806Z,17.05
2022-10-29T11:23:00.630Z,17.02
2022-10-29T11:25:32.946Z,16.96
2022-10-29T11:28:09.836Z,16.99
2022-10-29T11:30:42.801Z,16.97
2022-10-29T11:33:19.691Z,16.94
2022-10-29T11:35:51.522Z,16.90
2022-10-29T11:38:23.248Z,16.93
2022-10-29T11:40:58.445Z,16.85
2022-10-29T11:43:27.937Z,16.96
2022-10-29T11:45:59.529Z,16.90
2022-10-29T11:48:38.258Z,16.80
2022-10-29T11:51:15.565Z,16.68
2022-10-29T11:53:56.652Z,16.71
2022-10-29T11:56:33.708Z,16.69
2022-10-29T11:59:07.474Z,16.66
2022-10-29T12:01:42.180Z,16.73
2022-10-29T12:04:28.211Z,16.79
2022-10-29T12:07:03.643Z,16.80
2022-10-29T12:09:51.849Z,16.87
2022-10-29T12:12:26.681Z,16.85
2022-10-29T12:14:58.589Z,16.80
2022-10-29T12:17:33.068Z,16.79
2022-10-29T12:20:07.342Z,16.77
2022-10-29T12:22:39.552Z,16.79
2022-10-29T12:25:27.094Z,16.75
2022-10-29T12:28:02.465Z,16.70
2022-10-29T12:30:35.458Z,16.62
2022-10-29T12:33:07.693Z,16.67
2022-10-29T12:35:43.838Z,16.64
2022-10-29T12:38:25.838Z,16.69
2022-10-29T12:40:57.731Z,16.70
2022-10-29T12:43:28.408Z,16.67
2022-10-29T12:48:58.755Z,16.76
2022-10-29T12:51:34.849Z,16.74
2022-10-29T12:54:15.519Z,16.66
2022-10-29T12:56:49.491Z,16.67
2022-10-29T12:59:38.102Z,16.71
2022-10-29T13:02:25.439Z,16.77
2022-10-29T13:05:16.243Z,16.78
2022-10-29T13:08:19.733Z,16.67
2022-10-29T13:10:51.895Z,16.66
2022-10-29T13:13:27.360Z,16.64
2022-10-29T13:16:00.802Z,16.61
2022-10-29T13:18:38.978Z,16.52
2022-10-29T13:21:11.085Z,16.59
2022-10-29T13:23:40.698Z,16.58
2022-10-29T13:26:11.639Z,16.58
2022-10-29T13:28:58.371Z,16.56
2022-10-29T13:31:51.702Z,16.62
2022-10-29T13:34:39.670Z,16.61
2022-10-29T13:37:27.817Z,16.59
2022-10-29T13:40:12.954Z,16.50
2022-10-29T13:42:45.687Z,16.50
2022-10-29T13:45:15.298Z,16.45
2022-10-29T13:47:45.779Z,16.40
2022-10-29T13:50:16.593Z,16.33
2022-10-29T13:52:49.660Z,16.36
2022-10-29T13:55:20.644Z,16.36
2022-10-29T13:57:58.529Z,16.35
2022-10-29T14:00:29.252Z,16.33
2022-10-29T14:03:01.254Z,16.31
2022-10-29T14:05:33.937Z,16.27
2022-10-29T14:08:08.482Z,16.24
2022-10-29T14:10:43.806Z,16.21
2022-10-29T14:13:24.669Z,16.31
2022-10-29T14:16:02.541Z,16.26
2022-10-29T14:18:32.883Z,16.21
2022-10-29T14:21:03.532Z,16.19
2022-10-29T14:23:33.746Z,16.15
2022-10-29T14:26:04.187Z,16.09
2022-10-29T14:28:35.405Z,16.06
2022-10-29T14:31:06.344Z,16.02
2022-10-29T14:33:36.678Z,15.98
2022-10-29T14:36:10.932Z,15.97
2022-10-29T14:38:43.058Z,15.93
2022-10-29T14:41:12.949Z,15.88
2022-10-29T14:43:44.181Z,15.82
2022-10-29T14:46:18.298Z,15.77
2022-10-29T14:48:51.061Z,15.74
2022-10-29T14:51:21.884Z,15.66
2022-10-29T14:53:57.698Z,15.64
2022-10-29T14:56:31.789Z,15.58
2022-10-29T14:59:04.586Z,15.53
2022-10-29T15:01:34.371Z,15.48
2022-10-29T15:04:04.116Z,15.47
2022-10-29T15:06:33.972Z,15.42
2022-10-29T15:09:06.680Z,15.39
2022-10-29T15:11:37.761Z,15.30
2022-10-29T15:14:23.477Z,15.25
2022-10-29T15:16:55.230Z,15.20
2022-10-29T15:19:25.110Z,15.14
2022-10-29T15:21:54.841Z,15.12
2022-10-29T15:24:25.380Z,15.04
2022-10-29T15:26:56.152Z,14.97
2022-10-29T15:29:33.419Z,14.97
2022-10-29T15:32:05.568Z,14.92
2022-10-29T15:34:36.426Z,14.87
2022-10-29T15:37:15.863Z,14.82
2022-10-29T15:40:09.458Z,14.75
2022-10-29T15:42:39.569Z,14.68
2022-10-29T15:45:16.998Z,14.62
2022-10-29T15:47:49.365Z,14.59
2022-10-29T15:50:23.648Z,14.53
2022-10-29T15:52:54.659Z,14.49
2022-10-29T15:55:27.205Z,14.44
2022-10-29T15:58:00.800Z,14.44
2022-10-29T16:00:31.312Z,14.38
2022-10-29T16:03:07.601Z,14.34
2022-10-29T16:05:38.164Z,14.28
2022-10-29T16:08:07.774Z,14.25
2022-10-29T16:10:37.322Z,14.22
2022-10-29T16:13:10.288Z,14.20
2022-10-29T16:15:43.256Z,14.16
2022-10-29T16:18:15.652Z,14.12
2022-10-29T16:20:45.273Z,14.10
2022-10-29T16:23:15.354Z,14.06
2022-10-29T16:25:44.892Z,14.03
2022-10-29T16:28:14.452Z,14.01
2022-10-29T16:30:43.982Z,13.95
2022-10-29T16:33:15.135Z,13.92
2022-10-29T16:35:44.659Z,13.89
2022-10-29T16:38:14.339Z,13.87
2022-10-29T16:40:43.862Z,13.85
2022-10-29T16:43:13.465Z,13.81
2022-10-29T16:45:43.012Z,13.82
2022-10-29T16:48:12.613Z,13.81
2022-10-29T16:50:44.845Z,13.80
2022-10-29T16:53:14.452Z,13.75
2022-10-29T16:55:44.240Z,13.73
2022-10-29T16:58:14.318Z,13.70
2022-10-29T17:00:44.050Z,13.66
2022-10-29T17:03:14.527Z,13.63
2022-10-29T17:05:46.371Z,13.58
2022-10-29T17:08:15.964Z,13.55
2022-10-29T17:10:45.509Z,13.41
2022-10-29T17:13:15.918Z,13.39
2022-10-29T17:15:45.910Z,13.41
2022-10-29T17:18:15.745Z,13.37
2022-10-29T17:20:55.120Z,13.29
2022-10-29T17:23:24.825Z,13.22
2022-10-29T17:25:55.068Z,13.15
2022-10-29T17:28:25.160Z,13.10
2022-10-29T17:30:55.192Z,13.08
2022-10-29T17:33:24.933Z,13.06
2022-10-29T17:36:02.650Z,13.09
2022-10-29T17:38:32.244Z,13.04
2022-10-29T17:41:01.898Z,12.99
2022-10-29T17:43:31.582Z,12.95
2022-10-29T17:46:01.210Z,12.93
2022-10-29T17:48:30.817Z,12.98
2022-10-29T17:51:04.181Z,12.98
2022-10-29T17:53:33.811Z,12.99
2022-10-29T17:56:03.573Z,12.93
2022-10-29T17:58:33.131Z,12.75
2022-10-29T18:01:06.475Z,12.61
2022-10-29T18:03:39.575Z,12.65
2022-10-29T18:06:11.283Z,12.67
2022-10-29T18:08:43.261Z,12.71
2022-10-29T18:11:15.247Z,12.67
2022-10-29T18:13:45.654Z,12.64
2022-10-29T18:16:18.439Z,12.65
2022-10-29T18:19:01.635Z,12.59
2022-10-29T18:21:33.884Z,12.52
2022-10-29T18:24:03.525Z,12.46
2022-10-29T18:26:34.026Z,12.42
2022-10-29T18:29:07.722Z,12.40
2022-10-29T18:31:38.003Z,12.31
2022-10-29T18:34:08.035Z,12.33
2022-10-29T18:36:39.011Z,12.23
2022-10-29T18:39:08.697Z,12.23
2022-10-29T18:41:38.491Z,12.17
2022-10-29T18:44:08.320Z,12.10
2022-10-29T18:46:38.035Z,11.97
2022-10-29T18:49:07.696Z,11.93
2022-10-29T18:51:37.413Z,11.89
2022-10-29T18:54:08.632Z,11.77
2022-10-29T18:56:38.433Z,11.86
2022-10-29T18:59:08.458Z,11.85
2022-10-29T19:01:38.200Z,11.82
2022-10-29T19:04:12.755Z,11.67
2022-10-29T19:06:42.676Z,11.61
2022-10-29T19:09:13.658Z,11.51
2022-10-29T19:11:43.834Z,11.41
2022-10-29T19:14:14.884Z,11.61
2022-10-29T19:16:44.948Z,11.63
2022-10-29T19:19:17.051Z,11.50
2022-10-29T19:21:48.032Z,11.45
2022-10-29T19:24:19.315Z,11.44
2022-10-29T19:26:48.957Z,11.40
2022-10-29T19:29:18.682Z,11.42
2022-10-29T19:31:50.842Z,11.42
2022-10-29T19:34:20.483Z,11.33
2022-10-29T19:36:50.201Z,10.94
2022-10-29T19:39:21.135Z,11.27
2022-10-29T19:41:50.741Z,11.26
2022-10-29T19:44:20.329Z,11.13
2022-10-29T19:46:49.970Z,11.10
2022-10-29T19:49:19.531Z,10.87
2022-10-29T19:51:49.311Z,10.93
2022-10-29T19:54:18.923Z,10.89
2022-10-29T19:56:50.202Z,10.98
2022-10-29T19:59:19.822Z,10.85
2022-10-29T20:01:49.489Z,10.89
2022-10-29T20:04:19.313Z,10.74
2022-10-29T20:06:49.450Z,10.78
2022-10-29T20:09:18.972Z,10.68
2022-10-29T20:11:50.494Z,10.74
2022-10-29T20:14:22.204Z,10.71
2022-10-29T20:16:55.423Z,10.77
2022-10-29T20:19:24.965Z,10.77
2022-10-29T20:21:54.520Z,10.55
2022-10-29T20:24:24.054Z,10.53
2022-10-29T20:26:54.938Z,10.50
2022-10-29T20:29:24.916Z,10.61
2022-10-29T20:31:54.456Z,10.56
2022-10-29T20:34:24.356Z,10.48
2022-10-29T20:36:53.997Z,10.49
2022-10-29T20:39:23.866Z,10.58
2022-10-29T20:41:53.445Z,10.63
2022-10-29T20:44:30.682Z,10.57
2022-10-29T20:47:00.238Z,10.55
2022-10-29T20:49:29.792Z,10.52
2022-10-29T20:51:59.368Z,10.48
2022-10-29T20:54:28.913Z,10.52
2022-10-29T20:56:58.517Z,10.49
2022-10-29T20:59:28.045Z,10.52
2022-10-29T21:02:00.344Z,10.46
2022-10-29T21:04:30.096Z,10.51
2022-10-29T21:06:59.610Z,10.51
2022-10-29T21:09:29.081Z,10.43
2022-10-29T21:11:59.076Z,10.41
2022-10-29T21:14:29.683Z,10.34
2022-10-29T21:17:01.022Z,10.42
2022-10-29T21:19:34.158Z,10.38
2022-10-29T21:22:03.665Z,10.33
2022-10-29T21:24:33.212Z,10.34
2022-10-29T21:27:02.694Z,10.37
2022-10-29T21:29:32.186Z,10.35
2022-10-29T21:32:03.233Z,10.42
2022-10-29T21:34:32.812Z,10.20
2022-10-29T21:37:02.302Z,10.26
2022-10-29T21:39:33.131Z,10.25
2022-10-29T21:42:02.645Z,10.25
2022-10-29T21:44:32.465Z,10.30
2022-10-29T21:47:03.624Z,10.21
2022-10-29T21:49:33.176Z,10.17
2022-10-29T21:52:02.892Z,10.08
2022-10-29T21:54:32.450Z,10.03
2022-10-29T21:57:02.073Z,10.09
2022-10-29T21:59:31.603Z,10.11
2022-10-29T22:02:01.212Z,9.96
2022-10-29T22:04:32.220Z,9.85
2022-10-29T22:07:03.469Z,9.94
2022-10-29T22:09:32.940Z,10.04
2022-10-29T22:12:03.047Z,9.93
2022-10-29T22:14:33.384Z,9.98
2022-10-29T22:17:03.361Z,9.86
2022-10-29T22:19:34.288Z,9.78
2022-10-29T22:22:03.843Z,9.63
2022-10-29T22:24:33.391Z,9.74
2022-10-29T22:27:03.008Z,9.50
2022-10-29T22:29:32.546Z,9.61
2022-10-29T22:32:02.041Z,9.66
2022-10-29T22:34:31.552Z,9.64
2022-10-29T22:37:02.606Z,9.58
2022-10-29T22:39:32.082Z,9.51
2022-10-29T22:42:01.609Z,9.43
2022-10-29T22:44:31.111Z,9.39
2022-10-29T22:47:00.715Z,9.36
2022-10-29T22:49:30.209Z,9.38
2022-10-29T22:52:01.552Z,9.40
2022-10-29T22:54:32.885Z,9.38
2022-10-29T22:57:02.386Z,9.38
2022-10-29T22:59:31.983Z,9.33
2022-10-29T23:02:01.665Z,9.38
2022-10-29T23:04:31.276Z,9.31
2022-10-29T23:07:02.108Z,9.28
2022-10-29T23:09:33.241Z,9.10
2022-10-29T23:12:03.290Z,8.99
2022-10-29T23:14:33.380Z,9.21
2022-10-29T23:17:03.221Z,9.14
2022-10-29T23:19:32.828Z,9.19
2022-10-29T23:22:02.400Z,9.18
2022-10-29T23:24:33.474Z,9.16
2022-10-29T23:27:03.024Z,9.13
2022-10-29T23:29:32.525Z,9.27
2022-10-29T23:32:05.413Z,9.16
2022-10-29T23:34:34.940Z,9.08
2022-10-29T23:37:08.682Z,9.08
2022-10-29T23:39:40.969Z,9.02
2022-10-29T23:42:10.435Z,9.10
2022-10-29T23:44:40.030Z,8.91
2022-10-29T23:47:09.548Z,9.00
2022-10-29T23:49:39.069Z,9.00
2022-10-29T23:52:08.568Z,9.01
2022-10-29T23:54:38.272Z,8.96
2022-10-29T23:57:09.240Z,8.94
2022-10-29T23:59:38.831Z,8.88
